ADDS METAR Data INFO
IDs: Format: Raw Decoded Include TAF

Data at: 1051 UTC 19 Oct 2017

KIWA 191035Z AUTO 10007KT 10SM CLR 22/03 A2983 RMK AO2
KIWA 191015Z AUTO 11006KT 10SM CLR 22/04 A2983 RMK AO2
KIWA 190955Z AUTO 12006KT 10SM CLR 22/03 A2984 RMK AO2
KIWA 190935Z AUTO 11006KT 10SM CLR 21/04 A2984 RMK AO2
KIWA 190915Z AUTO 12006KT 10SM CLR 21/04 A2985 RMK AO2
KIWA 190855Z AUTO 10005KT 10SM CLR 21/04 A2985 RMK AO2
KIWA 190835Z AUTO 11006KT 10SM CLR 22/05 A2985 RMK AO2
KIWA 190815Z AUTO 11004KT 10SM CLR 22/06 A2985 RMK AO2
KIWA 190755Z AUTO 13006KT 10SM CLR 22/06 A2985 RMK AO2
KIWA 190735Z AUTO 17005KT 10SM CLR 22/06 A2985 RMK AO2
KIWA 190715Z AUTO 14006KT 10SM CLR 23/05 A2985 RMK AO2
KIWA 190647Z 12004KT 20SM SCT150 24/06 A2986
KIWA 190554Z 00000KT 20SM SCT150 26/04 A2987
KIWA 190447Z VRB03KT 20SM BKN150 27/06 A2987
KIWA 190351Z 00000KT 20SM BKN200 27/02 A2987
KIWA 190257Z 00000KT 20SM BKN150 31/04 A2988
KIWA 190047Z 32006KT 20SM SCT150 BKN180 33/04 A2987
KIWA 182348Z 31007KT 45SM SCT120 BKN150 33/04 A2987
KIWA 182247Z 29007KT 35SM SCT120 BKN150 34/03 A2988
KIWA 182149Z 26004KT 35SM FEW150 SCT200 34/04 A2989
KIWA 182050Z 25006KT 45SM SCT150 SCT200 34/06 A2991
KIWA 181950Z 00000KT 45SM SCT150 SCT200 33/06 A2994
KIWA 181847Z VRB04KT 45SM SCT250 32/07 A2997
KIWA 181747Z 00000KT 45SM SCT250 31/08 A2999
KIWA 181647Z VRB04KT 45SM SCT250 28/08 A2999
KIWA 181547Z 11006KT 35SM SCT120 BKN250 25/08 A2999
KIWA 181447Z 09005KT 45SM SCT200 20/07 A2997
KIWA 181347Z 10005KT 45SM SCT250 18/06 A2995
KIWA 181247Z 09006KT 20SM FEW200 19/06 A2994
KIWA 181147Z 08006KT 20SM SKC 19/06 A2993
KIWA 181135Z AUTO 10006KT 10SM CLR 18/05 A2992 RMK AO2
KIWA 181115Z AUTO 10006KT 10SM CLR 19/06 A2992 RMK AO2
KIWA 181055Z AUTO 12006KT 10SM CLR 19/05 A2992 RMK AO2
KIWA 181035Z AUTO 12006KT 10SM CLR 19/06 A2992 RMK AO2
KIWA 181015Z AUTO 11006KT 10SM CLR 20/05 A2992 RMK AO2
KIWA 180955Z AUTO 10007KT 10SM CLR 20/05 A2993 RMK AO2
KIWA 180935Z AUTO 10006KT 10SM CLR 20/06 A2993 RMK AO2
KIWA 180915Z AUTO 11005KT 10SM CLR 20/06 A2993 RMK AO2
KIWA 180855Z AUTO 11006KT 10SM CLR 20/06 A2993 RMK AO2
KIWA 180835Z AUTO 12007KT 10SM CLR 20/06 A2993 RMK AO2
KIWA 180815Z AUTO 12007KT 10SM CLR 20/06 A2993 RMK AO2
KIWA 180755Z AUTO 12005KT 10SM CLR 20/07 A2994 RMK AO2
KIWA 180735Z AUTO 13006KT 10SM CLR 19/08 A2994 RMK AO2
KIWA 180715Z AUTO 11006KT 10SM CLR 21/08 A2994 RMK AO2
KIWA 180650Z 00000KT 20SM BKN250 22/07 A2994
KIWA 180552Z 12003KT 20SM SCT200 23/06 A2995
KIWA 180450Z 09004KT 20SM BKN200 24/07 A2994
KIWA 180347Z 09004KT 20SM BKN200 26/08 A2993
KIWA 180247Z VRB03KT 20SM SKC 28/08 A2993
KIWA 180147Z VRB03KT 20SM SKC 31/08 A2992
KIWA 180047Z 27004KT 20SM BKN200 33/09 A2991
KIWA 172347Z 28007KT 35SM BKN180 34/09 A2991